sensor_id;sensor_type;location;lat;lon;timestamp;P1;durP1;ratioP1;P2;durP2;ratioP2
80131;SDS011;69442;51.442;10.564;2023-12-14T00:01:24;6.55;;;3.55;;
80131;SDS011;69442;51.442;10.564;2023-12-14T00:03:49;7.03;;;3.75;;
80131;SDS011;69442;51.442;10.564;2023-12-14T00:06:15;5.93;;;4.10;;
80131;SDS011;69442;51.442;10.564;2023-12-14T00:08:40;5.55;;;4.05;;
80131;SDS011;69442;51.442;10.564;2023-12-14T00:11:06;6.05;;;3.90;;
80131;SDS011;69442;51.442;10.564;2023-12-14T00:13:33;7.32;;;4.22;;
80131;SDS011;69442;51.442;10.564;2023-12-14T00:15:58;5.95;;;3.75;;
80131;SDS011;69442;51.442;10.564;2023-12-14T00:18:24;3.92;;;2.97;;
80131;SDS011;69442;51.442;10.564;2023-12-14T00:20:50;5.05;;;3.40;;
80131;SDS011;69442;51.442;10.564;2023-12-14T00:23:15;4.72;;;3.63;;
80131;SDS011;69442;51.442;10.564;2023-12-14T00:25:41;6.22;;;3.72;;
80131;SDS011;69442;51.442;10.564;2023-12-14T00:28:06;6.18;;;3.85;;
80131;SDS011;69442;51.442;10.564;2023-12-14T00:30:32;7.65;;;4.07;;
80131;SDS011;69442;51.442;10.564;2023-12-14T00:32:57;6.68;;;4.13;;
80131;SDS011;69442;51.442;10.564;2023-12-14T00:35:22;5.28;;;3.58;;
80131;SDS011;69442;51.442;10.564;2023-12-14T00:37:48;5.70;;;3.97;;
80131;SDS011;69442;51.442;10.564;2023-12-14T00:40:13;7.22;;;4.50;;
80131;SDS011;69442;51.442;10.564;2023-12-14T00:42:38;5.90;;;4.35;;
80131;SDS011;69442;51.442;10.564;2023-12-14T00:45:04;6.15;;;3.97;;
80131;SDS011;69442;51.442;10.564;2023-12-14T00:47:29;6.28;;;4.05;;
80131;SDS011;69442;51.442;10.564;2023-12-14T00:49:55;3.47;;;2.22;;
80131;SDS011;69442;51.442;10.564;2023-12-14T00:52:20;5.63;;;3.95;;
80131;SDS011;69442;51.442;10.564;2023-12-14T00:54:46;2.67;;;1.83;;
80131;SDS011;69442;51.442;10.564;2023-12-14T00:57:11;4.10;;;3.05;;
80131;SDS011;69442;51.442;10.564;2023-12-14T00:59:36;6.32;;;4.15;;
80131;SDS011;69442;51.442;10.564;2023-12-14T01:02:02;7.05;;;4.35;;
80131;SDS011;69442;51.442;10.564;2023-12-14T01:04:27;8.35;;;4.68;;
80131;SDS011;69442;51.442;10.564;2023-12-14T01:06:53;7.82;;;4.40;;
80131;SDS011;69442;51.442;10.564;2023-12-14T01:09:18;8.27;;;4.65;;
80131;SDS011;69442;51.442;10.564;2023-12-14T01:11:43;7.65;;;4.90;;
80131;SDS011;69442;51.442;10.564;2023-12-14T01:14:09;7.97;;;4.55;;
80131;SDS011;69442;51.442;10.564;2023-12-14T01:16:34;7.75;;;4.18;;
80131;SDS011;69442;51.442;10.564;2023-12-14T01:18:59;7.28;;;4.72;;
80131;SDS011;69442;51.442;10.564;2023-12-14T01:21:25;7.65;;;4.93;;
80131;SDS011;69442;51.442;10.564;2023-12-14T01:23:50;7.25;;;4.68;;
80131;SDS011;69442;51.442;10.564;2023-12-14T01:26:17;3.75;;;2.83;;
80131;SDS011;69442;51.442;10.564;2023-12-14T01:28:43;2.83;;;2.15;;
80131;SDS011;69442;51.442;10.564;2023-12-14T01:31:08;7.55;;;4.60;;
80131;SDS011;69442;51.442;10.564;2023-12-14T01:33:34;9.13;;;4.75;;
80131;SDS011;69442;51.442;10.564;2023-12-14T01:35:59;6.35;;;4.00;;
80131;SDS011;69442;51.442;10.564;2023-12-14T01:38:25;6.40;;;4.07;;
80131;SDS011;69442;51.442;10.564;2023-12-14T01:40:50;6.38;;;4.53;;
80131;SDS011;69442;51.442;10.564;2023-12-14T01:43:16;7.18;;;4.32;;
80131;SDS011;69442;51.442;10.564;2023-12-14T01:45:41;6.85;;;4.55;;
80131;SDS011;69442;51.442;10.564;2023-12-14T01:48:07;6.60;;;4.18;;
80131;SDS011;69442;51.442;10.564;2023-12-14T01:50:32;6.88;;;3.58;;
80131;SDS011;69442;51.442;10.564;2023-12-14T01:52:58;8.00;;;4.15;;
80131;SDS011;69442;51.442;10.564;2023-12-14T01:55:23;6.95;;;4.25;;
80131;SDS011;69442;51.442;10.564;2023-12-14T01:57:52;6.28;;;3.90;;
80131;SDS011;69442;51.442;10.564;2023-12-14T02:03:06;6.18;;;3.88;;
80131;SDS011;69442;51.442;10.564;2023-12-14T02:05:31;6.63;;;3.38;;
80131;SDS011;69442;51.442;10.564;2023-12-14T02:07:57;8.75;;;4.55;;
80131;SDS011;69442;51.442;10.564;2023-12-14T02:10:22;7.78;;;4.45;;
80131;SDS011;69442;51.442;10.564;2023-12-14T02:12:48;4.75;;;2.70;;
80131;SDS011;69442;51.442;10.564;2023-12-14T02:15:13;9.68;;;4.43;;
80131;SDS011;69442;51.442;10.564;2023-12-14T02:17:39;7.05;;;4.50;;
80131;SDS011;69442;51.442;10.564;2023-12-14T02:20:04;8.70;;;4.85;;
80131;SDS011;69442;51.442;10.564;2023-12-14T02:25:18;10.77;;;5.32;;
80131;SDS011;69442;51.442;10.564;2023-12-14T02:27:43;9.55;;;4.95;;
80131;SDS011;69442;51.442;10.564;2023-12-14T02:30:09;8.60;;;4.43;;
80131;SDS011;69442;51.442;10.564;2023-12-14T02:32:36;5.75;;;2.63;;
80131;SDS011;69442;51.442;10.564;2023-12-14T02:35:02;3.15;;;1.80;;
80131;SDS011;69442;51.442;10.564;2023-12-14T02:37:27;8.52;;;4.57;;
80131;SDS011;69442;51.442;10.564;2023-12-14T02:39:53;9.20;;;4.95;;
80131;SDS011;69442;51.442;10.564;2023-12-14T02:42:18;8.40;;;4.22;;
80131;SDS011;69442;51.442;10.564;2023-12-14T02:44:44;10.35;;;5.35;;
80131;SDS011;69442;51.442;10.564;2023-12-14T02:47:09;9.48;;;5.10;;
80131;SDS011;69442;51.442;10.564;2023-12-14T02:49:34;6.28;;;3.67;;
80131;SDS011;69442;51.442;10.564;2023-12-14T02:52:00;7.68;;;4.35;;
80131;SDS011;69442;51.442;10.564;2023-12-14T02:54:25;10.57;;;5.35;;
80131;SDS011;69442;51.442;10.564;2023-12-14T02:56:51;7.80;;;4.60;;
80131;SDS011;69442;51.442;10.564;2023-12-14T02:59:16;7.93;;;4.22;;
80131;SDS011;69442;51.442;10.564;2023-12-14T03:01:41;3.92;;;2.40;;
80131;SDS011;69442;51.442;10.564;2023-12-14T03:04:07;6.43;;;4.10;;
80131;SDS011;69442;51.442;10.564;2023-12-14T03:06:32;6.47;;;3.70;;
80131;SDS011;69442;51.442;10.564;2023-12-14T03:08:58;5.60;;;3.67;;
80131;SDS011;69442;51.442;10.564;2023-12-14T03:11:24;8.82;;;5.03;;
80131;SDS011;69442;51.442;10.564;2023-12-14T03:13:50;6.47;;;3.95;;
80131;SDS011;69442;51.442;10.564;2023-12-14T03:16:15;8.18;;;5.05;;
80131;SDS011;69442;51.442;10.564;2023-12-14T03:18:44;10.10;;;5.68;;
80131;SDS011;69442;51.442;10.564;2023-12-14T03:21:09;8.10;;;4.53;;
80131;SDS011;69442;51.442;10.564;2023-12-14T03:23:35;5.43;;;3.50;;
80131;SDS011;69442;51.442;10.564;2023-12-14T03:26:00;10.40;;;6.07;;
80131;SDS011;69442;51.442;10.564;2023-12-14T03:28:26;10.52;;;5.63;;
80131;SDS011;69442;51.442;10.564;2023-12-14T03:30:52;6.53;;;3.65;;
80131;SDS011;69442;51.442;10.564;2023-12-14T03:33:17;9.82;;;5.72;;
80131;SDS011;69442;51.442;10.564;2023-12-14T03:35:43;9.65;;;5.45;;
80131;SDS011;69442;51.442;10.564;2023-12-14T03:38:09;10.35;;;5.35;;
80131;SDS011;69442;51.442;10.564;2023-12-14T03:40:34;7.45;;;5.05;;
80131;SDS011;69442;51.442;10.564;2023-12-14T03:43:00;5.20;;;3.20;;
80131;SDS011;69442;51.442;10.564;2023-12-14T03:45:27;4.55;;;3.03;;
80131;SDS011;69442;51.442;10.564;2023-12-14T03:47:52;5.05;;;2.50;;
80131;SDS011;69442;51.442;10.564;2023-12-14T03:50:18;5.07;;;3.25;;
80131;SDS011;69442;51.442;10.564;2023-12-14T03:52:43;4.57;;;3.28;;
80131;SDS011;69442;51.442;10.564;2023-12-14T03:55:08;7.05;;;3.33;;
80131;SDS011;69442;51.442;10.564;2023-12-14T03:57:34;5.03;;;3.10;;
80131;SDS011;69442;51.442;10.564;2023-12-14T04:00:00;3.33;;;2.30;;
80131;SDS011;69442;51.442;10.564;2023-12-14T04:02:25;5.97;;;3.42;;
80131;SDS011;69442;51.442;10.564;2023-12-14T04:04:50;4.93;;;3.67;;
80131;SDS011;69442;51.442;10.564;2023-12-14T04:07:16;5.55;;;3.75;;
80131;SDS011;69442;51.442;10.564;2023-12-14T04:09:44;6.93;;;3.40;;
80131;SDS011;69442;51.442;10.564;2023-12-14T04:12:10;5.25;;;3.70;;
80131;SDS011;69442;51.442;10.564;2023-12-14T04:14:36;3.42;;;2.38;;
80131;SDS011;69442;51.442;10.564;2023-12-14T04:17:01;3.35;;;2.30;;
80131;SDS011;69442;51.442;10.564;2023-12-14T04:19:27;1.08;;;0.98;;
80131;SDS011;69442;51.442;10.564;2023-12-14T04:21:53;2.20;;;1.90;;
80131;SDS011;69442;51.442;10.564;2023-12-14T04:24:18;2.50;;;1.70;;
80131;SDS011;69442;51.442;10.564;2023-12-14T04:26:44;3.03;;;1.92;;
80131;SDS011;69442;51.442;10.564;2023-12-14T04:29:09;3.42;;;1.70;;
80131;SDS011;69442;51.442;10.564;2023-12-14T04:31:35;1.80;;;1.30;;
80131;SDS011;69442;51.442;10.564;2023-12-14T04:34:00;2.20;;;1.25;;
80131;SDS011;69442;51.442;10.564;2023-12-14T04:36:26;3.60;;;1.17;;
80131;SDS011;69442;51.442;10.564;2023-12-14T04:38:51;2.00;;;1.40;;
80131;SDS011;69442;51.442;10.564;2023-12-14T04:41:16;1.42;;;1.20;;
80131;SDS011;69442;51.442;10.564;2023-12-14T04:43:42;1.63;;;1.38;;
80131;SDS011;69442;51.442;10.564;2023-12-14T04:46:07;2.17;;;1.60;;
80131;SDS011;69442;51.442;10.564;2023-12-14T04:48:33;3.13;;;2.00;;
80131;SDS011;69442;51.442;10.564;2023-12-14T04:50:58;1.33;;;1.20;;
80131;SDS011;69442;51.442;10.564;2023-12-14T04:53:23;2.53;;;1.67;;
80131;SDS011;69442;51.442;10.564;2023-12-14T04:55:49;3.10;;;2.13;;
80131;SDS011;69442;51.442;10.564;2023-12-14T04:58:14;2.35;;;2.15;;
80131;SDS011;69442;51.442;10.564;2023-12-14T05:00:39;2.65;;;1.73;;
80131;SDS011;69442;51.442;10.564;2023-12-14T05:03:05;3.08;;;2.10;;
80131;SDS011;69442;51.442;10.564;2023-12-14T05:05:31;2.42;;;1.88;;
80131;SDS011;69442;51.442;10.564;2023-12-14T05:07:56;2.45;;;1.50;;
80131;SDS011;69442;51.442;10.564;2023-12-14T05:10:21;1.85;;;1.60;;
80131;SDS011;69442;51.442;10.564;2023-12-14T05:12:47;1.73;;;1.27;;
80131;SDS011;69442;51.442;10.564;2023-12-14T05:15:12;2.05;;;1.38;;
80131;SDS011;69442;51.442;10.564;2023-12-14T05:17:39;1.60;;;1.13;;
80131;SDS011;69442;51.442;10.564;2023-12-14T05:20:07;1.98;;;1.42;;
80131;SDS011;69442;51.442;10.564;2023-12-14T05:22:33;1.35;;;1.20;;
80131;SDS011;69442;51.442;10.564;2023-12-14T05:24:59;2.25;;;1.33;;
80131;SDS011;69442;51.442;10.564;2023-12-14T05:27:24;1.63;;;1.38;;
80131;SDS011;69442;51.442;10.564;2023-12-14T05:29:50;1.20;;;1.02;;
80131;SDS011;69442;51.442;10.564;2023-12-14T05:32:15;1.30;;;0.60;;
80131;SDS011;69442;51.442;10.564;2023-12-14T05:34:41;1.88;;;1.40;;
80131;SDS011;69442;51.442;10.564;2023-12-14T05:37:06;1.50;;;1.10;;
80131;SDS011;69442;51.442;10.564;2023-12-14T05:39:31;1.58;;;1.30;;
80131;SDS011;69442;51.442;10.564;2023-12-14T05:41:57;1.10;;;1.00;;
80131;SDS011;69442;51.442;10.564;2023-12-14T05:44:22;1.05;;;0.95;;
80131;SDS011;69442;51.442;10.564;2023-12-14T05:46:48;1.17;;;1.10;;
80131;SDS011;69442;51.442;10.564;2023-12-14T05:49:14;1.17;;;0.85;;
80131;SDS011;69442;51.442;10.564;2023-12-14T05:51:39;2.13;;;0.80;;
80131;SDS011;69442;51.442;10.564;2023-12-14T05:54:05;1.83;;;1.15;;
80131;SDS011;69442;51.442;10.564;2023-12-14T05:56:30;3.13;;;1.30;;
80131;SDS011;69442;51.442;10.564;2023-12-14T05:58:55;1.05;;;0.90;;
80131;SDS011;69442;51.442;10.564;2023-12-14T06:01:22;1.73;;;1.10;;
80131;SDS011;69442;51.442;10.564;2023-12-14T06:03:48;1.38;;;1.20;;
80131;SDS011;69442;51.442;10.564;2023-12-14T06:06:14;0.80;;;0.80;;
80131;SDS011;69442;51.442;10.564;2023-12-14T06:08:39;2.83;;;1.33;;
80131;SDS011;69442;51.442;10.564;2023-12-14T06:11:05;1.25;;;1.02;;
80131;SDS011;69442;51.442;10.564;2023-12-14T06:13:31;1.55;;;1.10;;
80131;SDS011;69442;51.442;10.564;2023-12-14T06:15:57;2.10;;;0.60;;
80131;SDS011;69442;51.442;10.564;2023-12-14T06:18:22;1.23;;;0.90;;
80131;SDS011;69442;51.442;10.564;2023-12-14T06:20:47;0.85;;;0.85;;
80131;SDS011;69442;51.442;10.564;2023-12-14T06:23:13;0.68;;;0.40;;
80131;SDS011;69442;51.442;10.564;2023-12-14T06:25:39;2.20;;;1.50;;
80131;SDS011;69442;51.442;10.564;2023-12-14T06:28:04;0.70;;;0.60;;
80131;SDS011;69442;51.442;10.564;2023-12-14T06:30:30;1.25;;;1.08;;
80131;SDS011;69442;51.442;10.564;2023-12-14T06:32:55;2.08;;;1.35;;
80131;SDS011;69442;51.442;10.564;2023-12-14T06:35:21;1.60;;;1.45;;
80131;SDS011;69442;51.442;10.564;2023-12-14T06:37:47;1.80;;;1.33;;
80131;SDS011;69442;51.442;10.564;2023-12-14T06:40:12;0.47;;;0.35;;
80131;SDS011;69442;51.442;10.564;2023-12-14T06:42:38;1.25;;;1.13;;
80131;SDS011;69442;51.442;10.564;2023-12-14T06:45:03;2.03;;;1.38;;
80131;SDS011;69442;51.442;10.564;2023-12-14T06:47:29;1.50;;;1.40;;
80131;SDS011;69442;51.442;10.564;2023-12-14T06:49:54;1.60;;;1.17;;
80131;SDS011;69442;51.442;10.564;2023-12-14T06:52:22;2.03;;;1.45;;
80131;SDS011;69442;51.442;10.564;2023-12-14T06:54:48;1.65;;;1.02;;
80131;SDS011;69442;51.442;10.564;2023-12-14T06:57:13;2.13;;;1.92;;
80131;SDS011;69442;51.442;10.564;2023-12-14T06:59:39;2.65;;;1.90;;
80131;SDS011;69442;51.442;10.564;2023-12-14T07:02:05;1.15;;;1.05;;
80131;SDS011;69442;51.442;10.564;2023-12-14T07:04:31;2.35;;;1.67;;
80131;SDS011;69442;51.442;10.564;2023-12-14T07:06:57;1.65;;;1.15;;
80131;SDS011;69442;51.442;10.564;2023-12-14T07:09:23;2.88;;;1.60;;
80131;SDS011;69442;51.442;10.564;2023-12-14T07:11:49;2.15;;;0.93;;
80131;SDS011;69442;51.442;10.564;2023-12-14T07:14:14;2.15;;;1.77;;
80131;SDS011;69442;51.442;10.564;2023-12-14T07:16:40;4.90;;;2.33;;
80131;SDS011;69442;51.442;10.564;2023-12-14T07:19:06;3.55;;;2.08;;
80131;SDS011;69442;51.442;10.564;2023-12-14T07:21:31;3.47;;;2.25;;
80131;SDS011;69442;51.442;10.564;2023-12-14T07:23:57;5.15;;;2.63;;
80131;SDS011;69442;51.442;10.564;2023-12-14T07:26:23;5.05;;;2.90;;
80131;SDS011;69442;51.442;10.564;2023-12-14T07:28:48;3.92;;;2.35;;
80131;SDS011;69442;51.442;10.564;2023-12-14T07:31:14;3.88;;;2.53;;
80131;SDS011;69442;51.442;10.564;2023-12-14T07:33:39;3.63;;;1.90;;
80131;SDS011;69442;51.442;10.564;2023-12-14T07:36:04;3.47;;;2.22;;
80131;SDS011;69442;51.442;10.564;2023-12-14T07:38:30;3.67;;;2.08;;
80131;SDS011;69442;51.442;10.564;2023-12-14T07:40:56;4.95;;;2.67;;
80131;SDS011;69442;51.442;10.564;2023-12-14T07:43:22;3.22;;;2.15;;
80131;SDS011;69442;51.442;10.564;2023-12-14T07:45:48;3.45;;;2.30;;
80131;SDS011;69442;51.442;10.564;2023-12-14T07:48:13;5.28;;;2.95;;
80131;SDS011;69442;51.442;10.564;2023-12-14T07:50:39;3.60;;;2.13;;
80131;SDS011;69442;51.442;10.564;2023-12-14T07:53:04;3.70;;;2.70;;
80131;SDS011;69442;51.442;10.564;2023-12-14T07:55:30;5.85;;;3.55;;
80131;SDS011;69442;51.442;10.564;2023-12-14T07:57:56;1.75;;;1.40;;
80131;SDS011;69442;51.442;10.564;2023-12-14T08:00:21;4.40;;;2.13;;
80131;SDS011;69442;51.442;10.564;2023-12-14T08:02:47;2.95;;;1.63;;
80131;SDS011;69442;51.442;10.564;2023-12-14T08:05:12;2.50;;;1.50;;
80131;SDS011;69442;51.442;10.564;2023-12-14T08:07:38;3.97;;;2.72;;
80131;SDS011;69442;51.442;10.564;2023-12-14T08:10:03;6.68;;;3.58;;
80131;SDS011;69442;51.442;10.564;2023-12-14T08:12:29;5.55;;;3.63;;
80131;SDS011;69442;51.442;10.564;2023-12-14T08:14:54;5.85;;;3.60;;
80131;SDS011;69442;51.442;10.564;2023-12-14T08:17:20;2.85;;;2.20;;
80131;SDS011;69442;51.442;10.564;2023-12-14T08:19:46;6.05;;;2.92;;
80131;SDS011;69442;51.442;10.564;2023-12-14T08:22:12;3.45;;;1.85;;
80131;SDS011;69442;51.442;10.564;2023-12-14T08:24:41;4.32;;;2.95;;
80131;SDS011;69442;51.442;10.564;2023-12-14T08:27:06;4.05;;;2.63;;
80131;SDS011;69442;51.442;10.564;2023-12-14T08:29:32;4.93;;;2.90;;
80131;SDS011;69442;51.442;10.564;2023-12-14T08:31:57;6.40;;;3.53;;
80131;SDS011;69442;51.442;10.564;2023-12-14T08:34:27;2.63;;;1.85;;
80131;SDS011;69442;51.442;10.564;2023-12-14T08:36:52;3.83;;;2.83;;
80131;SDS011;69442;51.442;10.564;2023-12-14T08:39:18;4.40;;;2.72;;
80131;SDS011;69442;51.442;10.564;2023-12-14T08:41:45;3.40;;;2.10;;
80131;SDS011;69442;51.442;10.564;2023-12-14T08:44:12;3.85;;;1.90;;
80131;SDS011;69442;51.442;10.564;2023-12-14T08:46:44;4.47;;;3.25;;
80131;SDS011;69442;51.442;10.564;2023-12-14T08:49:11;4.25;;;3.42;;
80131;SDS011;69442;51.442;10.564;2023-12-14T08:51:38;3.10;;;1.83;;
80131;SDS011;69442;51.442;10.564;2023-12-14T08:54:04;4.45;;;3.38;;
80131;SDS011;69442;51.442;10.564;2023-12-14T08:56:30;3.33;;;2.08;;
80131;SDS011;69442;51.442;10.564;2023-12-14T08:58:56;3.60;;;1.50;;
80131;SDS011;69442;51.442;10.564;2023-12-14T09:01:22;3.70;;;2.80;;
80131;SDS011;69442;51.442;10.564;2023-12-14T09:03:48;3.95;;;2.50;;
80131;SDS011;69442;51.442;10.564;2023-12-14T09:06:15;2.50;;;2.00;;
80131;SDS011;69442;51.442;10.564;2023-12-14T09:08:41;2.13;;;1.42;;
80131;SDS011;69442;51.442;10.564;2023-12-14T09:11:07;2.28;;;1.67;;
80131;SDS011;69442;51.442;10.564;2023-12-14T09:13:32;2.83;;;2.40;;
80131;SDS011;69442;51.442;10.564;2023-12-14T09:15:58;3.58;;;2.88;;
80131;SDS011;69442;51.442;10.564;2023-12-14T09:18:23;1.73;;;1.33;;
80131;SDS011;69442;51.442;10.564;2023-12-14T09:20:49;3.63;;;2.85;;
80131;SDS011;69442;51.442;10.564;2023-12-14T09:23:15;5.28;;;3.10;;
80131;SDS011;69442;51.442;10.564;2023-12-14T09:25:41;4.10;;;2.42;;
80131;SDS011;69442;51.442;10.564;2023-12-14T09:28:06;7.68;;;5.13;;
80131;SDS011;69442;51.442;10.564;2023-12-14T09:30:32;4.47;;;2.95;;
80131;SDS011;69442;51.442;10.564;2023-12-14T09:32:58;2.65;;;1.60;;
80131;SDS011;69442;51.442;10.564;2023-12-14T09:35:23;3.13;;;2.75;;
80131;SDS011;69442;51.442;10.564;2023-12-14T09:37:48;6.22;;;4.78;;
80131;SDS011;69442;51.442;10.564;2023-12-14T09:40:15;4.18;;;3.10;;
80131;SDS011;69442;51.442;10.564;2023-12-14T09:42:42;22.40;;;13.38;;
80131;SDS011;69442;51.442;10.564;2023-12-14T09:45:08;4.95;;;3.05;;
80131;SDS011;69442;51.442;10.564;2023-12-14T09:47:35;8.45;;;6.22;;
80131;SDS011;69442;51.442;10.564;2023-12-14T09:50:01;5.07;;;3.78;;
80131;SDS011;69442;51.442;10.564;2023-12-14T09:52:28;3.00;;;2.22;;
80131;SDS011;69442;51.442;10.564;2023-12-14T09:54:54;4.75;;;4.32;;
80131;SDS011;69442;51.442;10.564;2023-12-14T09:57:19;5.05;;;4.40;;
80131;SDS011;69442;51.442;10.564;2023-12-14T09:59:51;7.72;;;5.43;;
80131;SDS011;69442;51.442;10.564;2023-12-14T10:02:17;5.05;;;3.30;;
80131;SDS011;69442;51.442;10.564;2023-12-14T10:04:43;3.83;;;2.55;;
80131;SDS011;69442;51.442;10.564;2023-12-14T10:07:09;3.50;;;2.50;;
80131;SDS011;69442;51.442;10.564;2023-12-14T10:09:35;5.35;;;3.80;;
80131;SDS011;69442;51.442;10.564;2023-12-14T10:12:05;5.70;;;4.50;;
80131;SDS011;69442;51.442;10.564;2023-12-14T10:14:34;4.72;;;3.88;;
80131;SDS011;69442;51.442;10.564;2023-12-14T10:17:33;5.00;;;3.63;;
80131;SDS011;69442;51.442;10.564;2023-12-14T10:19:57;2.78;;;2.05;;
80131;SDS011;69442;51.442;10.564;2023-12-14T10:22:22;7.43;;;4.07;;
80131;SDS011;69442;51.442;10.564;2023-12-14T10:24:53;5.28;;;3.63;;
80131;SDS011;69442;51.442;10.564;2023-12-14T10:27:18;5.22;;;3.90;;
80131;SDS011;69442;51.442;10.564;2023-12-14T10:29:45;2.33;;;1.63;;
80131;SDS011;69442;51.442;10.564;2023-12-14T10:32:11;7.07;;;4.18;;
80131;SDS011;69442;51.442;10.564;2023-12-14T10:34:37;2.78;;;2.42;;
80131;SDS011;69442;51.442;10.564;2023-12-14T10:37:04;5.57;;;3.45;;
80131;SDS011;69442;51.442;10.564;2023-12-14T10:39:32;7.18;;;4.18;;
80131;SDS011;69442;51.442;10.564;2023-12-14T10:41:58;6.20;;;3.75;;
80131;SDS011;69442;51.442;10.564;2023-12-14T10:44:27;4.78;;;2.72;;
80131;SDS011;69442;51.442;10.564;2023-12-14T10:46:57;6.35;;;4.28;;
80131;SDS011;69442;51.442;10.564;2023-12-14T10:49:24;4.30;;;2.22;;
80131;SDS011;69442;51.442;10.564;2023-12-14T10:51:54;7.93;;;4.60;;
80131;SDS011;69442;51.442;10.564;2023-12-14T10:54:22;7.93;;;3.92;;
80131;SDS011;69442;51.442;10.564;2023-12-14T10:56:49;6.90;;;3.60;;
80131;SDS011;69442;51.442;10.564;2023-12-14T10:59:19;6.65;;;3.53;;
80131;SDS011;69442;51.442;10.564;2023-12-14T11:01:44;4.75;;;3.00;;
80131;SDS011;69442;51.442;10.564;2023-12-14T11:04:16;3.83;;;2.40;;
80131;SDS011;69442;51.442;10.564;2023-12-14T11:06:42;6.40;;;3.42;;
80131;SDS011;69442;51.442;10.564;2023-12-14T11:09:12;5.50;;;3.13;;
80131;SDS011;69442;51.442;10.564;2023-12-14T11:11:40;5.72;;;3.33;;
80131;SDS011;69442;51.442;10.564;2023-12-14T11:14:22;3.28;;;1.90;;
80131;SDS011;69442;51.442;10.564;2023-12-14T11:16:50;6.85;;;3.85;;
80131;SDS011;69442;51.442;10.564;2023-12-14T11:19:24;5.25;;;2.90;;
80131;SDS011;69442;51.442;10.564;2023-12-14T11:24:18;5.55;;;2.92;;
80131;SDS011;69442;51.442;10.564;2023-12-14T11:26:44;4.75;;;2.72;;
80131;SDS011;69442;51.442;10.564;2023-12-14T11:29:09;5.43;;;3.10;;
80131;SDS011;69442;51.442;10.564;2023-12-14T11:31:34;4.68;;;2.80;;
80131;SDS011;69442;51.442;10.564;2023-12-14T11:34:00;4.60;;;2.88;;
80131;SDS011;69442;51.442;10.564;2023-12-14T11:36:28;3.40;;;2.25;;
80131;SDS011;69442;51.442;10.564;2023-12-14T11:38:54;4.78;;;3.28;;
80131;SDS011;69442;51.442;10.564;2023-12-14T11:41:23;5.25;;;2.97;;
80131;SDS011;69442;51.442;10.564;2023-12-14T11:43:50;5.22;;;2.92;;
80131;SDS011;69442;51.442;10.564;2023-12-14T11:46:16;5.68;;;3.05;;
80131;SDS011;69442;51.442;10.564;2023-12-14T11:48:45;4.47;;;2.42;;
80131;SDS011;69442;51.442;10.564;2023-12-14T11:51:11;4.63;;;2.58;;
80131;SDS011;69442;51.442;10.564;2023-12-14T11:53:37;3.85;;;2.78;;
80131;SDS011;69442;51.442;10.564;2023-12-14T11:56:04;6.47;;;3.28;;
80131;SDS011;69442;51.442;10.564;2023-12-14T11:58:31;6.85;;;4.25;;
80131;SDS011;69442;51.442;10.564;2023-12-14T12:01:15;5.15;;;3.10;;
80131;SDS011;69442;51.442;10.564;2023-12-14T12:03:41;6.32;;;3.47;;
80131;SDS011;69442;51.442;10.564;2023-12-14T12:06:09;2.72;;;1.67;;
80131;SDS011;69442;51.442;10.564;2023-12-14T12:08:52;6.18;;;3.60;;
80131;SDS011;69442;51.442;10.564;2023-12-14T12:11:19;6.57;;;4.18;;
80131;SDS011;69442;51.442;10.564;2023-12-14T12:16:22;2.53;;;1.60;;
80131;SDS011;69442;51.442;10.564;2023-12-14T12:18:47;4.88;;;2.55;;
80131;SDS011;69442;51.442;10.564;2023-12-14T12:21:13;1.80;;;1.48;;
80131;SDS011;69442;51.442;10.564;2023-12-14T12:23:38;4.65;;;3.30;;
80131;SDS011;69442;51.442;10.564;2023-12-14T12:26:06;6.10;;;3.78;;
80131;SDS011;69442;51.442;10.564;2023-12-14T12:28:32;5.15;;;3.15;;
80131;SDS011;69442;51.442;10.564;2023-12-14T12:30:57;6.10;;;3.65;;
80131;SDS011;69442;51.442;10.564;2023-12-14T12:33:24;3.78;;;2.78;;
80131;SDS011;69442;51.442;10.564;2023-12-14T12:35:50;2.95;;;1.88;;
80131;SDS011;69442;51.442;10.564;2023-12-14T12:38:16;5.55;;;3.42;;
80131;SDS011;69442;51.442;10.564;2023-12-14T12:40:43;5.32;;;3.25;;
80131;SDS011;69442;51.442;10.564;2023-12-14T12:43:09;5.22;;;3.75;;
80131;SDS011;69442;51.442;10.564;2023-12-14T12:45:35;5.53;;;3.20;;
80131;SDS011;69442;51.442;10.564;2023-12-14T12:48:01;6.35;;;4.15;;
80131;SDS011;69442;51.442;10.564;2023-12-14T12:50:29;6.65;;;3.90;;
80131;SDS011;69442;51.442;10.564;2023-12-14T12:52:55;4.22;;;2.95;;
80131;SDS011;69442;51.442;10.564;2023-12-14T12:55:20;5.00;;;3.47;;
80131;SDS011;69442;51.442;10.564;2023-12-14T12:57:47;5.65;;;3.47;;
80131;SDS011;69442;51.442;10.564;2023-12-14T13:00:13;6.57;;;3.90;;
80131;SDS011;69442;51.442;10.564;2023-12-14T13:02:40;6.97;;;4.20;;
80131;SDS011;69442;51.442;10.564;2023-12-14T13:05:07;5.88;;;3.67;;
80131;SDS011;69442;51.442;10.564;2023-12-14T13:07:33;5.68;;;3.83;;
80131;SDS011;69442;51.442;10.564;2023-12-14T13:09:59;6.18;;;3.97;;
80131;SDS011;69442;51.442;10.564;2023-12-14T13:12:25;4.68;;;3.03;;
80131;SDS011;69442;51.442;10.564;2023-12-14T13:14:51;5.03;;;3.53;;
80131;SDS011;69442;51.442;10.564;2023-12-14T13:17:16;4.28;;;3.30;;
80131;SDS011;69442;51.442;10.564;2023-12-14T13:19:43;3.67;;;2.83;;
80131;SDS011;69442;51.442;10.564;2023-12-14T13:22:09;3.63;;;2.17;;
80131;SDS011;69442;51.442;10.564;2023-12-14T13:24:36;4.80;;;2.85;;
80131;SDS011;69442;51.442;10.564;2023-12-14T13:27:02;4.53;;;2.88;;
80131;SDS011;69442;51.442;10.564;2023-12-14T13:29:28;3.50;;;1.80;;
80131;SDS011;69442;51.442;10.564;2023-12-14T13:31:56;2.92;;;2.20;;
80131;SDS011;69442;51.442;10.564;2023-12-14T13:34:21;2.78;;;1.75;;
80131;SDS011;69442;51.442;10.564;2023-12-14T13:36:46;2.97;;;2.20;;
80131;SDS011;69442;51.442;10.564;2023-12-14T13:39:12;3.75;;;2.63;;
80131;SDS011;69442;51.442;10.564;2023-12-14T13:41:37;4.30;;;2.15;;
80131;SDS011;69442;51.442;10.564;2023-12-14T13:44:03;2.25;;;1.65;;
80131;SDS011;69442;51.442;10.564;2023-12-14T13:46:28;1.48;;;1.20;;
80131;SDS011;69442;51.442;10.564;2023-12-14T13:48:54;1.50;;;1.17;;
80131;SDS011;69442;51.442;10.564;2023-12-14T13:51:19;2.25;;;1.75;;
80131;SDS011;69442;51.442;10.564;2023-12-14T13:53:44;3.38;;;1.88;;
80131;SDS011;69442;51.442;10.564;2023-12-14T13:56:10;1.85;;;1.33;;
80131;SDS011;69442;51.442;10.564;2023-12-14T13:58:35;2.08;;;1.45;;
80131;SDS011;69442;51.442;10.564;2023-12-14T14:01:03;2.05;;;1.73;;
80131;SDS011;69442;51.442;10.564;2023-12-14T14:03:35;2.58;;;1.60;;
80131;SDS011;69442;51.442;10.564;2023-12-14T14:06:02;2.38;;;1.88;;
80131;SDS011;69442;51.442;10.564;2023-12-14T14:08:28;2.42;;;1.65;;
80131;SDS011;69442;51.442;10.564;2023-12-14T14:10:54;1.50;;;1.20;;
80131;SDS011;69442;51.442;10.564;2023-12-14T14:13:19;4.35;;;2.03;;
80131;SDS011;69442;51.442;10.564;2023-12-14T14:15:46;7.10;;;2.63;;
80131;SDS011;69442;51.442;10.564;2023-12-14T14:18:12;3.20;;;2.08;;
80131;SDS011;69442;51.442;10.564;2023-12-14T14:20:38;3.53;;;2.30;;
80131;SDS011;69442;51.442;10.564;2023-12-14T14:23:03;2.78;;;2.33;;
80131;SDS011;69442;51.442;10.564;2023-12-14T14:25:29;1.40;;;1.30;;
80131;SDS011;69442;51.442;10.564;2023-12-14T14:27:55;4.75;;;2.50;;
80131;SDS011;69442;51.442;10.564;2023-12-14T14:30:20;3.33;;;2.20;;
80131;SDS011;69442;51.442;10.564;2023-12-14T14:32:46;3.67;;;2.88;;
80131;SDS011;69442;51.442;10.564;2023-12-14T14:35:11;1.33;;;1.20;;
80131;SDS011;69442;51.442;10.564;2023-12-14T14:37:37;3.88;;;3.15;;